Terminal Aerodrome Forecast
Issued by NWS

Home | Current Version | Previous Version | Text Only | Print | Product List | Glossary On
Versions: 1 2 3 4 5 6 7 8 9 10 11 12
000
FTUS46 KMTR 142326
TAFSJC
TAF
KSJC 142326Z 1500/1524 30006KT P6SM FEW030 SCT100
     FM150200 VRB03KT P6SM FEW030 SCT100
     FM152000 31007KT P6SM BKN200=

USA.gov is the U.S. government's official web portal to all federal, state and local government web resources and services.